sensor_id;sensor_type;location;lat;lon;timestamp;P1;durP1;ratioP1;P2;durP2;ratioP2
3653;SDS011;70277;54.302;10.064;2023-06-22T00:02:00;3.40;;;2.92;;
3653;SDS011;70277;54.302;10.064;2023-06-22T00:04:27;4.03;;;2.75;;
3653;SDS011;70277;54.302;10.064;2023-06-22T00:06:54;4.55;;;3.00;;
3653;SDS011;70277;54.302;10.064;2023-06-22T00:09:20;7.65;;;2.95;;
3653;SDS011;70277;54.302;10.064;2023-06-22T00:11:47;6.50;;;2.95;;
3653;SDS011;70277;54.302;10.064;2023-06-22T00:14:14;3.90;;;2.72;;
3653;SDS011;70277;54.302;10.064;2023-06-22T00:16:40;4.95;;;3.00;;
3653;SDS011;70277;54.302;10.064;2023-06-22T00:19:09;3.95;;;2.80;;
3653;SDS011;70277;54.302;10.064;2023-06-22T00:21:37;6.07;;;3.17;;
3653;SDS011;70277;54.302;10.064;2023-06-22T00:24:04;6.47;;;3.17;;
3653;SDS011;70277;54.302;10.064;2023-06-22T00:26:31;3.08;;;2.70;;
3653;SDS011;70277;54.302;10.064;2023-06-22T00:28:57;4.00;;;2.60;;
3653;SDS011;70277;54.302;10.064;2023-06-22T00:31:24;4.20;;;2.70;;
3653;SDS011;70277;54.302;10.064;2023-06-22T00:33:50;3.88;;;2.70;;
3653;SDS011;70277;54.302;10.064;2023-06-22T00:36:17;5.35;;;2.67;;
3653;SDS011;70277;54.302;10.064;2023-06-22T00:38:43;4.68;;;2.60;;
3653;SDS011;70277;54.302;10.064;2023-06-22T00:41:10;2.70;;;2.50;;
3653;SDS011;70277;54.302;10.064;2023-06-22T00:43:36;3.75;;;2.80;;
3653;SDS011;70277;54.302;10.064;2023-06-22T00:46:03;4.72;;;2.92;;
3653;SDS011;70277;54.302;10.064;2023-06-22T00:48:29;3.92;;;2.55;;
3653;SDS011;70277;54.302;10.064;2023-06-22T00:50:56;2.78;;;2.58;;
3653;SDS011;70277;54.302;10.064;2023-06-22T00:53:22;3.95;;;2.78;;
3653;SDS011;70277;54.302;10.064;2023-06-22T00:55:49;2.88;;;2.53;;
3653;SDS011;70277;54.302;10.064;2023-06-22T00:58:18;6.45;;;2.67;;
3653;SDS011;70277;54.302;10.064;2023-06-22T01:00:48;3.15;;;2.88;;
3653;SDS011;70277;54.302;10.064;2023-06-22T01:03:15;2.95;;;2.50;;
3653;SDS011;70277;54.302;10.064;2023-06-22T01:05:43;5.63;;;2.97;;
3653;SDS011;70277;54.302;10.064;2023-06-22T01:13:37;5.40;;;3.50;;
3653;SDS011;70277;54.302;10.064;2023-06-22T01:19:00;9.10;;;3.10;;
3653;SDS011;70277;54.302;10.064;2023-06-22T01:21:30;3.45;;;3.15;;
3653;SDS011;70277;54.302;10.064;2023-06-22T01:24:02;3.28;;;3.00;;
3653;SDS011;70277;54.302;10.064;2023-06-22T01:26:37;3.67;;;2.80;;
3653;SDS011;70277;54.302;10.064;2023-06-22T01:29:08;2.78;;;2.58;;
3653;SDS011;70277;54.302;10.064;2023-06-22T01:31:38;4.40;;;3.17;;
3653;SDS011;70277;54.302;10.064;2023-06-22T01:34:06;2.88;;;2.63;;
3653;SDS011;70277;54.302;10.064;2023-06-22T01:36:35;4.03;;;3.20;;
3653;SDS011;70277;54.302;10.064;2023-06-22T01:39:02;10.07;;;3.17;;
3653;SDS011;70277;54.302;10.064;2023-06-22T01:41:33;3.78;;;3.10;;
3653;SDS011;70277;54.302;10.064;2023-06-22T01:44:01;5.85;;;2.90;;
3653;SDS011;70277;54.302;10.064;2023-06-22T01:46:31;4.60;;;2.90;;
3653;SDS011;70277;54.302;10.064;2023-06-22T01:48:58;8.65;;;2.92;;
3653;SDS011;70277;54.302;10.064;2023-06-22T01:51:25;3.22;;;2.92;;
3653;SDS011;70277;54.302;10.064;2023-06-22T01:53:51;6.78;;;3.70;;
3653;SDS011;70277;54.302;10.064;2023-06-22T01:56:18;3.13;;;2.85;;
3653;SDS011;70277;54.302;10.064;2023-06-22T01:58:55;3.65;;;2.80;;
3653;SDS011;70277;54.302;10.064;2023-06-22T02:01:35;4.03;;;3.65;;
3653;SDS011;70277;54.302;10.064;2023-06-22T02:04:20;3.35;;;2.97;;
3653;SDS011;70277;54.302;10.064;2023-06-22T02:06:51;4.82;;;3.92;;
3653;SDS011;70277;54.302;10.064;2023-06-22T02:09:22;5.20;;;3.60;;
3653;SDS011;70277;54.302;10.064;2023-06-22T02:11:52;3.83;;;3.45;;
3653;SDS011;70277;54.302;10.064;2023-06-22T02:14:22;4.65;;;3.38;;
3653;SDS011;70277;54.302;10.064;2023-06-22T02:16:50;4.35;;;3.17;;
3653;SDS011;70277;54.302;10.064;2023-06-22T02:19:22;3.75;;;3.10;;
3653;SDS011;70277;54.302;10.064;2023-06-22T02:21:49;3.80;;;2.97;;
3653;SDS011;70277;54.302;10.064;2023-06-22T02:24:15;3.92;;;3.13;;
3653;SDS011;70277;54.302;10.064;2023-06-22T02:26:42;4.93;;;3.08;;
3653;SDS011;70277;54.302;10.064;2023-06-22T02:29:11;5.13;;;3.05;;
3653;SDS011;70277;54.302;10.064;2023-06-22T02:31:38;3.10;;;2.80;;
3653;SDS011;70277;54.302;10.064;2023-06-22T02:34:04;3.55;;;3.17;;
3653;SDS011;70277;54.302;10.064;2023-06-22T02:36:31;3.58;;;3.17;;
3653;SDS011;70277;54.302;10.064;2023-06-22T02:38:59;4.25;;;3.28;;
3653;SDS011;70277;54.302;10.064;2023-06-22T02:41:27;3.13;;;2.72;;
3653;SDS011;70277;54.302;10.064;2023-06-22T02:43:53;5.85;;;3.33;;
3653;SDS011;70277;54.302;10.064;2023-06-22T02:46:20;3.90;;;3.03;;
3653;SDS011;70277;54.302;10.064;2023-06-22T02:48:47;3.70;;;3.30;;
3653;SDS011;70277;54.302;10.064;2023-06-22T02:51:14;2.75;;;2.55;;
3653;SDS011;70277;54.302;10.064;2023-06-22T02:53:41;3.83;;;2.75;;
3653;SDS011;70277;54.302;10.064;2023-06-22T02:56:10;3.42;;;3.08;;
3653;SDS011;70277;54.302;10.064;2023-06-22T02:58:38;3.72;;;2.85;;
3653;SDS011;70277;54.302;10.064;2023-06-22T03:01:05;5.40;;;2.88;;
3653;SDS011;70277;54.302;10.064;2023-06-22T03:03:32;3.13;;;2.85;;
3653;SDS011;70277;54.302;10.064;2023-06-22T03:05:59;3.28;;;2.97;;
3653;SDS011;70277;54.302;10.064;2023-06-22T03:08:28;3.78;;;3.10;;
3653;SDS011;70277;54.302;10.064;2023-06-22T03:10:55;4.30;;;3.75;;
3653;SDS011;70277;54.302;10.064;2023-06-22T03:13:22;3.35;;;3.00;;
3653;SDS011;70277;54.302;10.064;2023-06-22T03:15:49;4.78;;;3.17;;
3653;SDS011;70277;54.302;10.064;2023-06-22T03:18:16;5.38;;;3.35;;
3653;SDS011;70277;54.302;10.064;2023-06-22T03:20:42;3.95;;;3.15;;
3653;SDS011;70277;54.302;10.064;2023-06-22T03:23:08;3.53;;;3.15;;
3653;SDS011;70277;54.302;10.064;2023-06-22T03:25:35;5.53;;;3.20;;
3653;SDS011;70277;54.302;10.064;2023-06-22T03:28:01;4.05;;;3.05;;
3653;SDS011;70277;54.302;10.064;2023-06-22T03:30:28;6.38;;;3.53;;
3653;SDS011;70277;54.302;10.064;2023-06-22T03:32:55;3.30;;;2.83;;
3653;SDS011;70277;54.302;10.064;2023-06-22T03:35:22;3.65;;;3.17;;
3653;SDS011;70277;54.302;10.064;2023-06-22T03:37:49;7.28;;;3.53;;
3653;SDS011;70277;54.302;10.064;2023-06-22T03:40:15;3.60;;;3.28;;
3653;SDS011;70277;54.302;10.064;2023-06-22T03:42:42;4.72;;;3.80;;
3653;SDS011;70277;54.302;10.064;2023-06-22T03:45:09;5.00;;;3.70;;
3653;SDS011;70277;54.302;10.064;2023-06-22T03:47:36;4.45;;;3.60;;
3653;SDS011;70277;54.302;10.064;2023-06-22T03:50:03;7.38;;;3.50;;
3653;SDS011;70277;54.302;10.064;2023-06-22T03:52:30;7.88;;;3.45;;
3653;SDS011;70277;54.302;10.064;2023-06-22T03:54:56;4.88;;;3.17;;
3653;SDS011;70277;54.302;10.064;2023-06-22T03:57:23;5.50;;;3.50;;
3653;SDS011;70277;54.302;10.064;2023-06-22T03:59:50;6.13;;;4.05;;
3653;SDS011;70277;54.302;10.064;2023-06-22T04:02:16;5.93;;;3.40;;
3653;SDS011;70277;54.302;10.064;2023-06-22T04:04:43;3.80;;;3.50;;
3653;SDS011;70277;54.302;10.064;2023-06-22T04:07:09;5.20;;;4.07;;
3653;SDS011;70277;54.302;10.064;2023-06-22T04:09:36;7.85;;;5.50;;
3653;SDS011;70277;54.302;10.064;2023-06-22T04:12:02;7.10;;;4.43;;
3653;SDS011;70277;54.302;10.064;2023-06-22T04:14:29;8.13;;;4.32;;
3653;SDS011;70277;54.302;10.064;2023-06-22T04:16:56;4.40;;;4.00;;
3653;SDS011;70277;54.302;10.064;2023-06-22T04:19:23;6.30;;;4.60;;
3653;SDS011;70277;54.302;10.064;2023-06-22T04:21:50;6.97;;;4.68;;
3653;SDS011;70277;54.302;10.064;2023-06-22T04:24:16;5.47;;;4.35;;
3653;SDS011;70277;54.302;10.064;2023-06-22T04:26:43;6.45;;;4.85;;
3653;SDS011;70277;54.302;10.064;2023-06-22T04:29:11;7.82;;;4.70;;
3653;SDS011;70277;54.302;10.064;2023-06-22T04:31:38;9.07;;;5.00;;
3653;SDS011;70277;54.302;10.064;2023-06-22T04:34:05;7.07;;;4.60;;
3653;SDS011;70277;54.302;10.064;2023-06-22T04:36:36;9.25;;;4.80;;
3653;SDS011;70277;54.302;10.064;2023-06-22T04:39:05;6.70;;;4.85;;
3653;SDS011;70277;54.302;10.064;2023-06-22T04:41:33;11.88;;;7.30;;
3653;SDS011;70277;54.302;10.064;2023-06-22T04:44:08;9.07;;;5.80;;
3653;SDS011;70277;54.302;10.064;2023-06-22T04:46:51;9.77;;;6.63;;
3653;SDS011;70277;54.302;10.064;2023-06-22T04:49:30;10.57;;;6.78;;
3653;SDS011;70277;54.302;10.064;2023-06-22T04:52:00;10.73;;;7.25;;
3653;SDS011;70277;54.302;10.064;2023-06-22T04:54:31;8.23;;;6.45;;
3653;SDS011;70277;54.302;10.064;2023-06-22T04:57:05;15.27;;;7.05;;
3653;SDS011;70277;54.302;10.064;2023-06-22T04:59:38;10.60;;;7.10;;
3653;SDS011;70277;54.302;10.064;2023-06-22T05:02:08;9.45;;;7.18;;
3653;SDS011;70277;54.302;10.064;2023-06-22T05:04:35;11.07;;;7.53;;
3653;SDS011;70277;54.302;10.064;2023-06-22T05:07:06;9.57;;;7.20;;
3653;SDS011;70277;54.302;10.064;2023-06-22T05:09:32;20.83;;;7.10;;
3653;SDS011;70277;54.302;10.064;2023-06-22T05:12:02;11.60;;;7.25;;
3653;SDS011;70277;54.302;10.064;2023-06-22T05:14:32;28.30;;;7.78;;
3653;SDS011;70277;54.302;10.064;2023-06-22T05:17:01;10.88;;;7.53;;
3653;SDS011;70277;54.302;10.064;2023-06-22T05:19:30;12.77;;;7.03;;
3653;SDS011;70277;54.302;10.064;2023-06-22T05:22:00;8.15;;;6.70;;
3653;SDS011;70277;54.302;10.064;2023-06-22T05:24:26;11.57;;;6.85;;
3653;SDS011;70277;54.302;10.064;2023-06-22T05:26:53;10.68;;;6.28;;
3653;SDS011;70277;54.302;10.064;2023-06-22T05:29:19;10.23;;;6.90;;
3653;SDS011;70277;54.302;10.064;2023-06-22T05:31:48;10.70;;;6.90;;
3653;SDS011;70277;54.302;10.064;2023-06-22T05:34:15;10.25;;;6.65;;
3653;SDS011;70277;54.302;10.064;2023-06-22T05:36:42;7.90;;;6.43;;
3653;SDS011;70277;54.302;10.064;2023-06-22T05:39:10;9.38;;;6.25;;
3653;SDS011;70277;54.302;10.064;2023-06-22T05:41:39;10.68;;;6.35;;
3653;SDS011;70277;54.302;10.064;2023-06-22T05:44:06;11.38;;;6.13;;
3653;SDS011;70277;54.302;10.064;2023-06-22T05:46:32;8.30;;;5.55;;
3653;SDS011;70277;54.302;10.064;2023-06-22T05:48:59;8.23;;;5.65;;
3653;SDS011;70277;54.302;10.064;2023-06-22T05:51:25;13.40;;;5.35;;
3653;SDS011;70277;54.302;10.064;2023-06-22T05:53:52;5.75;;;4.97;;
3653;SDS011;70277;54.302;10.064;2023-06-22T05:56:18;9.80;;;4.65;;
3653;SDS011;70277;54.302;10.064;2023-06-22T05:58:47;7.25;;;4.75;;
3653;SDS011;70277;54.302;10.064;2023-06-22T06:01:14;8.18;;;4.55;;
3653;SDS011;70277;54.302;10.064;2023-06-22T06:03:42;8.82;;;3.80;;
3653;SDS011;70277;54.302;10.064;2023-06-22T06:06:08;7.47;;;3.83;;
3653;SDS011;70277;54.302;10.064;2023-06-22T06:08:37;8.00;;;4.00;;
3653;SDS011;70277;54.302;10.064;2023-06-22T06:11:04;5.07;;;4.10;;
3653;SDS011;70277;54.302;10.064;2023-06-22T06:13:31;5.75;;;3.78;;
3653;SDS011;70277;54.302;10.064;2023-06-22T06:15:58;6.57;;;3.58;;
3653;SDS011;70277;54.302;10.064;2023-06-22T06:18:25;6.43;;;3.70;;
3653;SDS011;70277;54.302;10.064;2023-06-22T06:20:52;5.05;;;3.78;;
3653;SDS011;70277;54.302;10.064;2023-06-22T06:23:19;7.47;;;3.15;;
3653;SDS011;70277;54.302;10.064;2023-06-22T06:25:45;3.30;;;2.55;;
3653;SDS011;70277;54.302;10.064;2023-06-22T06:28:12;4.78;;;2.58;;
3653;SDS011;70277;54.302;10.064;2023-06-22T06:30:38;4.97;;;2.58;;
3653;SDS011;70277;54.302;10.064;2023-06-22T06:33:05;4.75;;;2.60;;
3653;SDS011;70277;54.302;10.064;2023-06-22T06:35:35;5.38;;;2.90;;
3653;SDS011;70277;54.302;10.064;2023-06-22T06:38:02;3.47;;;2.63;;
3653;SDS011;70277;54.302;10.064;2023-06-22T06:40:28;4.22;;;2.72;;
3653;SDS011;70277;54.302;10.064;2023-06-22T06:42:56;2.63;;;2.35;;
3653;SDS011;70277;54.302;10.064;2023-06-22T06:45:23;3.40;;;2.40;;
3653;SDS011;70277;54.302;10.064;2023-06-22T06:47:51;2.42;;;2.22;;
3653;SDS011;70277;54.302;10.064;2023-06-22T06:50:19;4.57;;;2.50;;
3653;SDS011;70277;54.302;10.064;2023-06-22T06:52:46;2.92;;;2.10;;
3653;SDS011;70277;54.302;10.064;2023-06-22T06:55:12;8.38;;;2.45;;
3653;SDS011;70277;54.302;10.064;2023-06-22T06:57:40;3.58;;;2.35;;
3653;SDS011;70277;54.302;10.064;2023-06-22T07:00:09;2.35;;;2.15;;
3653;SDS011;70277;54.302;10.064;2023-06-22T07:02:39;3.00;;;2.30;;
3653;SDS011;70277;54.302;10.064;2023-06-22T07:05:08;5.63;;;2.42;;
3653;SDS011;70277;54.302;10.064;2023-06-22T07:07:35;2.97;;;2.05;;
3653;SDS011;70277;54.302;10.064;2023-06-22T07:10:04;4.50;;;2.28;;
3653;SDS011;70277;54.302;10.064;2023-06-22T07:12:32;3.60;;;2.78;;
3653;SDS011;70277;54.302;10.064;2023-06-22T07:15:02;5.00;;;2.45;;
3653;SDS011;70277;54.302;10.064;2023-06-22T07:17:30;2.70;;;2.13;;
3653;SDS011;70277;54.302;10.064;2023-06-22T07:20:01;3.47;;;2.13;;
3653;SDS011;70277;54.302;10.064;2023-06-22T07:22:28;2.80;;;2.40;;
3653;SDS011;70277;54.302;10.064;2023-06-22T07:24:54;4.60;;;1.95;;
3653;SDS011;70277;54.302;10.064;2023-06-22T07:27:21;3.83;;;2.40;;
3653;SDS011;70277;54.302;10.064;2023-06-22T07:29:48;1.95;;;1.85;;
3653;SDS011;70277;54.302;10.064;2023-06-22T07:32:14;7.43;;;2.05;;
3653;SDS011;70277;54.302;10.064;2023-06-22T07:34:41;4.65;;;1.95;;
3653;SDS011;70277;54.302;10.064;2023-06-22T07:37:10;4.72;;;2.30;;
3653;SDS011;70277;54.302;10.064;2023-06-22T07:39:37;2.33;;;2.00;;
3653;SDS011;70277;54.302;10.064;2023-06-22T07:42:04;3.30;;;2.50;;
3653;SDS011;70277;54.302;10.064;2023-06-22T07:44:31;4.95;;;2.53;;
3653;SDS011;70277;54.302;10.064;2023-06-22T07:46:57;4.97;;;2.35;;
3653;SDS011;70277;54.302;10.064;2023-06-22T07:49:24;3.13;;;2.20;;
3653;SDS011;70277;54.302;10.064;2023-06-22T07:51:50;3.05;;;2.10;;
3653;SDS011;70277;54.302;10.064;2023-06-22T07:54:17;3.17;;;1.92;;
3653;SDS011;70277;54.302;10.064;2023-06-22T07:56:44;4.10;;;2.28;;
3653;SDS011;70277;54.302;10.064;2023-06-22T07:59:10;2.00;;;1.90;;
3653;SDS011;70277;54.302;10.064;2023-06-22T08:01:36;3.53;;;2.22;;
3653;SDS011;70277;54.302;10.064;2023-06-22T08:04:03;5.65;;;2.30;;
3653;SDS011;70277;54.302;10.064;2023-06-22T08:06:32;3.70;;;2.20;;
3653;SDS011;70277;54.302;10.064;2023-06-22T08:08:58;2.47;;;2.10;;
3653;SDS011;70277;54.302;10.064;2023-06-22T08:11:25;5.70;;;2.20;;
3653;SDS011;70277;54.302;10.064;2023-06-22T08:13:52;2.95;;;1.98;;
3653;SDS011;70277;54.302;10.064;2023-06-22T08:16:18;2.63;;;1.90;;
3653;SDS011;70277;54.302;10.064;2023-06-22T08:18:45;4.25;;;2.00;;
3653;SDS011;70277;54.302;10.064;2023-06-22T08:21:11;3.38;;;2.25;;
3653;SDS011;70277;54.302;10.064;2023-06-22T08:23:38;2.15;;;1.70;;
3653;SDS011;70277;54.302;10.064;2023-06-22T08:26:04;3.65;;;2.22;;
3653;SDS011;70277;54.302;10.064;2023-06-22T08:28:31;3.45;;;2.38;;
3653;SDS011;70277;54.302;10.064;2023-06-22T08:30:58;3.08;;;1.88;;
3653;SDS011;70277;54.302;10.064;2023-06-22T08:33:26;2.17;;;1.70;;
3653;SDS011;70277;54.302;10.064;2023-06-22T08:35:54;3.22;;;1.88;;
3653;SDS011;70277;54.302;10.064;2023-06-22T08:38:21;2.90;;;1.52;;
3653;SDS011;70277;54.302;10.064;2023-06-22T08:40:48;2.38;;;2.10;;
3653;SDS011;70277;54.302;10.064;2023-06-22T08:43:15;3.95;;;1.88;;
3653;SDS011;70277;54.302;10.064;2023-06-22T08:45:41;3.05;;;1.67;;
3653;SDS011;70277;54.302;10.064;2023-06-22T08:48:09;2.90;;;1.60;;
3653;SDS011;70277;54.302;10.064;2023-06-22T08:50:36;4.55;;;2.03;;
3653;SDS011;70277;54.302;10.064;2023-06-22T08:53:02;2.20;;;2.00;;
3653;SDS011;70277;54.302;10.064;2023-06-22T08:55:29;3.42;;;2.10;;
3653;SDS011;70277;54.302;10.064;2023-06-22T08:57:56;3.05;;;1.90;;
3653;SDS011;70277;54.302;10.064;2023-06-22T09:00:22;2.90;;;2.00;;
3653;SDS011;70277;54.302;10.064;2023-06-22T09:02:49;5.32;;;1.90;;
3653;SDS011;70277;54.302;10.064;2023-06-22T09:05:16;2.83;;;1.90;;
3653;SDS011;70277;54.302;10.064;2023-06-22T09:07:42;2.22;;;1.90;;
3653;SDS011;70277;54.302;10.064;2023-06-22T09:10:09;2.42;;;1.85;;
3653;SDS011;70277;54.302;10.064;2023-06-22T09:12:36;1.98;;;1.83;;
3653;SDS011;70277;54.302;10.064;2023-06-22T09:15:04;6.90;;;2.30;;
3653;SDS011;70277;54.302;10.064;2023-06-22T09:17:37;2.50;;;1.98;;
3653;SDS011;70277;54.302;10.064;2023-06-22T09:20:04;2.08;;;1.90;;
3653;SDS011;70277;54.302;10.064;2023-06-22T09:22:33;2.00;;;1.85;;
3653;SDS011;70277;54.302;10.064;2023-06-22T09:25:00;3.38;;;2.15;;
3653;SDS011;70277;54.302;10.064;2023-06-22T09:27:26;3.90;;;2.60;;
3653;SDS011;70277;54.302;10.064;2023-06-22T09:29:53;2.83;;;1.70;;
3653;SDS011;70277;54.302;10.064;2023-06-22T09:32:19;4.75;;;1.92;;
3653;SDS011;70277;54.302;10.064;2023-06-22T09:34:46;2.40;;;2.20;;
3653;SDS011;70277;54.302;10.064;2023-06-22T09:37:12;3.45;;;1.88;;
3653;SDS011;70277;54.302;10.064;2023-06-22T09:39:39;2.03;;;1.92;;
3653;SDS011;70277;54.302;10.064;2023-06-22T09:42:05;2.35;;;1.80;;
3653;SDS011;70277;54.302;10.064;2023-06-22T09:44:32;2.15;;;1.67;;
3653;SDS011;70277;54.302;10.064;2023-06-22T09:46:59;5.03;;;2.00;;
3653;SDS011;70277;54.302;10.064;2023-06-22T09:49:26;2.42;;;1.90;;
3653;SDS011;70277;54.302;10.064;2023-06-22T09:52:11;2.13;;;1.85;;
3653;SDS011;70277;54.302;10.064;2023-06-22T09:54:37;2.13;;;2.00;;
3653;SDS011;70277;54.302;10.064;2023-06-22T09:57:04;2.53;;;1.75;;
3653;SDS011;70277;54.302;10.064;2023-06-22T09:59:30;3.20;;;1.95;;
3653;SDS011;70277;54.302;10.064;2023-06-22T10:01:57;3.85;;;1.90;;
3653;SDS011;70277;54.302;10.064;2023-06-22T10:04:23;2.78;;;2.15;;
3653;SDS011;70277;54.302;10.064;2023-06-22T10:06:51;3.05;;;1.70;;
3653;SDS011;70277;54.302;10.064;2023-06-22T10:09:18;2.08;;;1.77;;
3653;SDS011;70277;54.302;10.064;2023-06-22T10:11:44;1.77;;;1.67;;
3653;SDS011;70277;54.302;10.064;2023-06-22T10:14:11;2.20;;;2.00;;
3653;SDS011;70277;54.302;10.064;2023-06-22T10:16:37;2.33;;;1.90;;
3653;SDS011;70277;54.302;10.064;2023-06-22T10:19:04;3.67;;;1.95;;
3653;SDS011;70277;54.302;10.064;2023-06-22T10:21:31;1.73;;;1.60;;
3653;SDS011;70277;54.302;10.064;2023-06-22T10:23:57;3.15;;;1.88;;
3653;SDS011;70277;54.302;10.064;2023-06-22T10:26:25;3.60;;;2.10;;
3653;SDS011;70277;54.302;10.064;2023-06-22T10:28:54;2.42;;;2.03;;
3653;SDS011;70277;54.302;10.064;2023-06-22T10:31:41;8.57;;;1.95;;
3653;SDS011;70277;54.302;10.064;2023-06-22T10:34:07;1.92;;;1.83;;
3653;SDS011;70277;54.302;10.064;2023-06-22T10:36:34;5.95;;;2.00;;
3653;SDS011;70277;54.302;10.064;2023-06-22T10:39:00;2.72;;;2.10;;
3653;SDS011;70277;54.302;10.064;2023-06-22T10:41:28;2.53;;;1.88;;
3653;SDS011;70277;54.302;10.064;2023-06-22T10:43:56;2.25;;;1.98;;
3653;SDS011;70277;54.302;10.064;2023-06-22T10:46:26;4.13;;;1.90;;
3653;SDS011;70277;54.302;10.064;2023-06-22T10:48:54;5.00;;;2.00;;
3653;SDS011;70277;54.302;10.064;2023-06-22T10:51:23;3.00;;;1.90;;
3653;SDS011;70277;54.302;10.064;2023-06-22T10:53:49;3.00;;;2.28;;
3653;SDS011;70277;54.302;10.064;2023-06-22T10:56:17;2.35;;;2.00;;
3653;SDS011;70277;54.302;10.064;2023-06-22T10:58:45;2.60;;;1.83;;
3653;SDS011;70277;54.302;10.064;2023-06-22T11:01:12;2.65;;;1.80;;
3653;SDS011;70277;54.302;10.064;2023-06-22T11:03:59;3.22;;;2.13;;
3653;SDS011;70277;54.302;10.064;2023-06-22T11:06:25;3.38;;;2.00;;
3653;SDS011;70277;54.302;10.064;2023-06-22T11:08:52;4.13;;;2.00;;
3653;SDS011;70277;54.302;10.064;2023-06-22T11:11:37;4.35;;;2.17;;
3653;SDS011;70277;54.302;10.064;2023-06-22T11:14:04;1.95;;;1.83;;
3653;SDS011;70277;54.302;10.064;2023-06-22T11:16:30;2.25;;;2.05;;
3653;SDS011;70277;54.302;10.064;2023-06-22T11:18:57;7.00;;;2.58;;
3653;SDS011;70277;54.302;10.064;2023-06-22T11:21:23;3.33;;;2.25;;
3653;SDS011;70277;54.302;10.064;2023-06-22T11:23:50;5.43;;;2.17;;
3653;SDS011;70277;54.302;10.064;2023-06-22T11:26:18;6.75;;;2.97;;
3653;SDS011;70277;54.302;10.064;2023-06-22T11:28:44;4.40;;;2.20;;
3653;SDS011;70277;54.302;10.064;2023-06-22T11:31:11;5.32;;;3.25;;
3653;SDS011;70277;54.302;10.064;2023-06-22T11:33:51;4.32;;;2.30;;
3653;SDS011;70277;54.302;10.064;2023-06-22T11:36:17;4.10;;;2.33;;
3653;SDS011;70277;54.302;10.064;2023-06-22T11:38:44;3.00;;;2.17;;
3653;SDS011;70277;54.302;10.064;2023-06-22T11:41:11;4.38;;;2.42;;
3653;SDS011;70277;54.302;10.064;2023-06-22T11:43:37;1.83;;;1.73;;
3653;SDS011;70277;54.302;10.064;2023-06-22T11:46:04;3.08;;;2.10;;
3653;SDS011;70277;54.302;10.064;2023-06-22T11:48:30;2.42;;;2.22;;
3653;SDS011;70277;54.302;10.064;2023-06-22T11:50:57;3.72;;;2.00;;
3653;SDS011;70277;54.302;10.064;2023-06-22T11:53:26;4.93;;;2.08;;
3653;SDS011;70277;54.302;10.064;2023-06-22T11:55:53;7.93;;;3.47;;
3653;SDS011;70277;54.302;10.064;2023-06-22T11:58:21;5.53;;;2.80;;
3653;SDS011;70277;54.302;10.064;2023-06-22T12:00:48;2.78;;;2.50;;
3653;SDS011;70277;54.302;10.064;2023-06-22T12:03:18;2.80;;;2.20;;
3653;SDS011;70277;54.302;10.064;2023-06-22T12:05:45;8.50;;;2.30;;
3653;SDS011;70277;54.302;10.064;2023-06-22T12:08:12;1.95;;;1.77;;
3653;SDS011;70277;54.302;10.064;2023-06-22T12:10:40;6.10;;;2.45;;
3653;SDS011;70277;54.302;10.064;2023-06-22T12:13:06;3.03;;;2.50;;
3653;SDS011;70277;54.302;10.064;2023-06-22T12:15:33;2.60;;;2.40;;
3653;SDS011;70277;54.302;10.064;2023-06-22T12:17:59;3.35;;;2.33;;
3653;SDS011;70277;54.302;10.064;2023-06-22T12:20:27;3.88;;;1.95;;
3653;SDS011;70277;54.302;10.064;2023-06-22T12:22:54;2.92;;;2.20;;
3653;SDS011;70277;54.302;10.064;2023-06-22T12:25:22;2.20;;;2.10;;
3653;SDS011;70277;54.302;10.064;2023-06-22T12:27:49;2.13;;;2.00;;
3653;SDS011;70277;54.302;10.064;2023-06-22T12:30:16;2.65;;;1.90;;
3653;SDS011;70277;54.302;10.064;2023-06-22T12:32:42;6.43;;;2.00;;
3653;SDS011;70277;54.302;10.064;2023-06-22T12:35:09;3.25;;;2.03;;
3653;SDS011;70277;54.302;10.064;2023-06-22T12:37:42;2.67;;;1.80;;
3653;SDS011;70277;54.302;10.064;2023-06-22T12:40:09;6.32;;;1.85;;
3653;SDS011;70277;54.302;10.064;2023-06-22T12:42:36;2.03;;;1.70;;
3653;SDS011;70277;54.302;10.064;2023-06-22T12:45:03;2.30;;;2.13;;
3653;SDS011;70277;54.302;10.064;2023-06-22T12:47:30;5.97;;;1.90;;
3653;SDS011;70277;54.302;10.064;2023-06-22T12:49:57;3.50;;;1.90;;
3653;SDS011;70277;54.302;10.064;2023-06-22T12:52:23;1.98;;;1.77;;
3653;SDS011;70277;54.302;10.064;2023-06-22T12:54:50;4.03;;;1.65;;
3653;SDS011;70277;54.302;10.064;2023-06-22T12:57:21;2.20;;;1.70;;
3653;SDS011;70277;54.302;10.064;2023-06-22T12:59:47;3.58;;;1.67;;
3653;SDS011;70277;54.302;10.064;2023-06-22T13:02:14;5.93;;;1.75;;
3653;SDS011;70277;54.302;10.064;2023-06-22T13:04:40;2.22;;;1.73;;
3653;SDS011;70277;54.302;10.064;2023-06-22T13:07:07;1.70;;;1.60;;
3653;SDS011;70277;54.302;10.064;2023-06-22T13:09:48;3.10;;;1.58;;
3653;SDS011;70277;54.302;10.064;2023-06-22T13:12:18;13.60;;;1.90;;
3653;SDS011;70277;54.302;10.064;2023-06-22T13:14:46;4.97;;;2.00;;
3653;SDS011;70277;54.302;10.064;2023-06-22T13:17:13;2.45;;;1.70;;
3653;SDS011;70277;54.302;10.064;2023-06-22T13:19:40;6.88;;;1.70;;
3653;SDS011;70277;54.302;10.064;2023-06-22T13:22:10;2.20;;;2.00;;
3653;SDS011;70277;54.302;10.064;2023-06-22T13:24:58;2.42;;;1.92;;
3653;SDS011;70277;54.302;10.064;2023-06-22T13:27:26;2.03;;;1.80;;
3653;SDS011;70277;54.302;10.064;2023-06-22T13:29:53;8.82;;;2.40;;
3653;SDS011;70277;54.302;10.064;2023-06-22T13:32:19;2.78;;;1.52;;
3653;SDS011;70277;54.302;10.064;2023-06-22T13:34:46;4.07;;;1.60;;
3653;SDS011;70277;54.302;10.064;2023-06-22T13:37:12;3.03;;;2.03;;
3653;SDS011;70277;54.302;10.064;2023-06-22T13:39:39;2.25;;;1.70;;
3653;SDS011;70277;54.302;10.064;2023-06-22T13:42:05;2.28;;;1.90;;
3653;SDS011;70277;54.302;10.064;2023-06-22T13:44:32;2.03;;;1.92;;
3653;SDS011;70277;54.302;10.064;2023-06-22T13:46:59;4.53;;;2.08;;
3653;SDS011;70277;54.302;10.064;2023-06-22T13:49:26;2.28;;;1.65;;
3653;SDS011;70277;54.302;10.064;2023-06-22T13:51:52;3.85;;;1.88;;
3653;SDS011;70277;54.302;10.064;2023-06-22T13:54:19;2.65;;;2.22;;
3653;SDS011;70277;54.302;10.064;2023-06-22T13:59:15;3.08;;;1.80;;
3653;SDS011;70277;54.302;10.064;2023-06-22T14:01:41;3.22;;;1.60;;
3653;SDS011;70277;54.302;10.064;2023-06-22T14:04:09;3.03;;;1.80;;
3653;SDS011;70277;54.302;10.064;2023-06-22T14:06:37;4.13;;;1.98;;
3653;SDS011;70277;54.302;10.064;2023-06-22T14:09:04;2.85;;;1.70;;
3653;SDS011;70277;54.302;10.064;2023-06-22T14:11:30;3.53;;;1.83;;
3653;SDS011;70277;54.302;10.064;2023-06-22T14:13:57;2.05;;;1.70;;
3653;SDS011;70277;54.302;10.064;2023-06-22T14:16:23;1.98;;;1.88;;
3653;SDS011;70277;54.302;10.064;2023-06-22T14:18:50;1.95;;;1.75;;
3653;SDS011;70277;54.302;10.064;2023-06-22T14:21:19;1.58;;;1.48;;
3653;SDS011;70277;54.302;10.064;2023-06-22T14:23:46;1.83;;;1.60;;
3653;SDS011;70277;54.302;10.064;2023-06-22T14:31:17;2.65;;;1.77;;
3653;SDS011;70277;54.302;10.064;2023-06-22T14:33:48;1.50;;;1.40;;
3653;SDS011;70277;54.302;10.064;2023-06-22T14:36:16;1.60;;;1.50;;
3653;SDS011;70277;54.302;10.064;2023-06-22T14:38:45;4.40;;;1.48;;
3653;SDS011;70277;54.302;10.064;2023-06-22T14:41:13;3.47;;;1.67;;
3653;SDS011;70277;54.302;10.064;2023-06-22T14:43:44;5.78;;;1.70;;
3653;SDS011;70277;54.302;10.064;2023-06-22T14:46:12;1.77;;;1.67;;
3653;SDS011;70277;54.302;10.064;2023-06-22T14:48:41;3.47;;;1.60;;
3653;SDS011;70277;54.302;10.064;2023-06-22T14:51:08;3.67;;;1.40;;
3653;SDS011;70277;54.302;10.064;2023-06-22T14:53:38;2.30;;;1.40;;
3653;SDS011;70277;54.302;10.064;2023-06-22T14:56:04;3.97;;;1.60;;
3653;SDS011;70277;54.302;10.064;2023-06-22T14:58:31;4.60;;;2.08;;
3653;SDS011;70277;54.302;10.064;2023-06-22T15:01:04;1.70;;;1.52;;
3653;SDS011;70277;54.302;10.064;2023-06-22T15:03:34;2.15;;;1.70;;
3653;SDS011;70277;54.302;10.064;2023-06-22T15:06:03;1.63;;;1.40;;
3653;SDS011;70277;54.302;10.064;2023-06-22T15:08:30;3.20;;;1.70;;